createdAt,value
2022-09-30T00:02:18.475Z,13.64
2022-09-30T00:04:45.314Z,13.64
2022-09-30T00:07:12.165Z,13.62
2022-09-30T00:09:38.983Z,13.63
2022-09-30T00:12:05.826Z,13.63
2022-09-30T00:14:32.653Z,13.62
2022-09-30T00:16:59.696Z,13.61
2022-09-30T00:19:26.498Z,13.62
2022-09-30T00:21:53.243Z,13.62
2022-09-30T00:24:20.018Z,13.61
2022-09-30T00:26:46.794Z,13.61
2022-09-30T00:29:13.578Z,13.60
2022-09-30T00:31:40.518Z,13.59
2022-09-30T00:34:07.640Z,13.60
2022-09-30T00:36:34.574Z,13.59
2022-09-30T00:39:01.470Z,13.57
2022-09-30T00:41:28.496Z,13.57
2022-09-30T00:43:55.231Z,13.54
2022-09-30T00:46:24.981Z,13.54
2022-09-30T00:48:54.046Z,13.52
2022-09-30T00:51:36.842Z,13.49
2022-09-30T00:54:08.819Z,13.43
2022-09-30T00:56:49.537Z,13.41
2022-09-30T00:59:20.714Z,13.38
2022-09-30T01:01:47.518Z,13.36
2022-09-30T01:04:20.735Z,13.33
2022-09-30T01:06:47.959Z,13.28
2022-09-30T01:09:14.921Z,13.26
2022-09-30T01:11:41.814Z,13.22
2022-09-30T01:14:16.128Z,13.18
2022-09-30T01:16:54.794Z,13.14
2022-09-30T01:19:57.381Z,13.10
2022-09-30T01:22:44.911Z,13.03
2022-09-30T01:25:22.965Z,12.99
2022-09-30T01:28:35.178Z,12.95
2022-09-30T01:31:31.217Z,12.90
2022-09-30T01:34:10.134Z,12.85
2022-09-30T01:37:00.066Z,12.82
2022-09-30T01:39:28.659Z,12.78
2022-09-30T01:42:11.299Z,12.74
2022-09-30T01:44:49.676Z,12.72
2022-09-30T01:47:26.452Z,12.68
2022-09-30T01:50:10.276Z,12.63
2022-09-30T01:52:49.337Z,12.60
2022-09-30T01:55:21.873Z,12.57
2022-09-30T01:58:06.699Z,12.53
2022-09-30T02:00:37.055Z,12.50
2022-09-30T02:03:16.436Z,12.47
2022-09-30T02:05:48.484Z,12.45
2022-09-30T02:08:21.766Z,12.42
2022-09-30T02:11:24.932Z,12.39
2022-09-30T02:13:58.254Z,12.35
2022-09-30T02:16:34.764Z,12.32
2022-09-30T02:19:09.360Z,12.30
2022-09-30T02:21:40.267Z,12.27
2022-09-30T02:24:10.812Z,12.25
2022-09-30T02:26:39.929Z,12.23
2022-09-30T02:29:17.232Z,12.22
2022-09-30T02:31:45.334Z,12.21
2022-09-30T02:34:15.965Z,12.18
2022-09-30T02:36:49.918Z,12.16
2022-09-30T02:39:25.677Z,12.16
2022-09-30T02:41:56.449Z,12.14
2022-09-30T02:44:23.324Z,12.13
2022-09-30T02:47:06.785Z,12.10
2022-09-30T02:49:42.855Z,12.09
2022-09-30T02:52:20.182Z,12.07
2022-09-30T02:55:08.503Z,12.05
2022-09-30T02:57:46.088Z,12.01
2022-09-30T03:00:13.848Z,11.98
2022-09-30T03:02:41.335Z,11.97
2022-09-30T03:05:09.666Z,11.96
2022-09-30T03:07:37.199Z,11.93
2022-09-30T03:10:15.327Z,11.91
2022-09-30T03:12:50.810Z,11.90
2022-09-30T03:15:29.665Z,11.87
2022-09-30T03:18:00.979Z,11.83
2022-09-30T03:20:39.723Z,11.81
2022-09-30T03:23:29.893Z,11.79
2022-09-30T03:26:12.821Z,11.74
2022-09-30T03:29:05.776Z,11.72
2022-09-30T03:31:50.853Z,11.69
2022-09-30T03:34:29.438Z,11.68
2022-09-30T03:37:23.477Z,11.65
2022-09-30T03:40:18.649Z,11.62
2022-09-30T03:42:48.336Z,11.60
2022-09-30T03:45:29.810Z,11.59
2022-09-30T03:48:01.603Z,11.56
2022-09-30T03:50:29.135Z,11.54
2022-09-30T03:52:55.928Z,11.54
2022-09-30T03:55:23.586Z,11.52
2022-09-30T03:57:51.428Z,11.51
2022-09-30T04:00:19.038Z,11.50
2022-09-30T04:02:46.363Z,11.50
2022-09-30T04:05:13.335Z,11.48
2022-09-30T04:07:40.464Z,11.48
2022-09-30T04:10:07.599Z,11.45
2022-09-30T04:12:34.441Z,11.44
2022-09-30T04:15:01.182Z,11.42
2022-09-30T04:17:27.984Z,11.39
2022-09-30T04:19:54.741Z,11.37
2022-09-30T04:22:25.640Z,11.36
2022-09-30T04:24:53.302Z,11.34
2022-09-30T04:27:20.067Z,11.31
2022-09-30T04:29:46.831Z,11.29
2022-09-30T04:32:13.689Z,11.27
2022-09-30T04:34:40.511Z,11.26
2022-09-30T04:37:10.753Z,11.25
2022-09-30T04:39:37.935Z,11.22
2022-09-30T04:42:04.703Z,11.20
2022-09-30T04:44:31.536Z,11.19
2022-09-30T04:46:58.377Z,11.18
2022-09-30T04:49:25.202Z,11.15
2022-09-30T04:51:52.003Z,11.14
2022-09-30T04:54:19.287Z,11.12
2022-09-30T04:56:46.187Z,11.11
2022-09-30T04:59:13.363Z,11.09
2022-09-30T05:01:42.510Z,11.06
2022-09-30T05:04:10.404Z,11.04
2022-09-30T05:06:37.196Z,11.04
2022-09-30T05:09:04.037Z,11.01
2022-09-30T05:11:30.904Z,10.99
2022-09-30T05:13:57.721Z,10.97
2022-09-30T05:16:24.595Z,10.96
2022-09-30T05:18:51.716Z,10.94
2022-09-30T05:21:20.510Z,10.91
2022-09-30T05:23:47.481Z,10.91
2022-09-30T05:26:14.329Z,10.91
2022-09-30T05:28:42.101Z,10.89
2022-09-30T05:31:09.271Z,10.89
2022-09-30T05:33:36.602Z,10.89
2022-09-30T05:36:06.751Z,10.87
2022-09-30T05:38:33.838Z,10.88
2022-09-30T05:41:13.149Z,10.88
2022-09-30T05:43:41.586Z,10.88
2022-09-30T05:46:08.551Z,10.91
2022-09-30T05:48:35.595Z,10.91
2022-09-30T05:51:02.722Z,10.94
2022-09-30T05:53:31.918Z,10.95
2022-09-30T05:55:59.509Z,10.98
2022-09-30T05:58:27.471Z,11.01
2022-09-30T06:00:54.731Z,11.02
2022-09-30T06:03:21.700Z,11.06
2022-09-30T06:05:48.747Z,11.10
2022-09-30T06:08:16.076Z,11.14
2022-09-30T06:10:48.222Z,11.18
2022-09-30T06:13:17.505Z,11.24
2022-09-30T06:15:45.038Z,11.29
2022-09-30T06:18:20.074Z,11.35
2022-09-30T06:20:47.409Z,11.39
2022-09-30T06:23:14.565Z,11.46
2022-09-30T06:25:43.760Z,11.52
2022-09-30T06:28:10.980Z,11.58
2022-09-30T06:30:38.012Z,11.63
2022-09-30T06:33:04.962Z,11.68
2022-09-30T06:35:32.072Z,11.74
2022-09-30T06:37:59.158Z,11.79
2022-09-30T06:40:26.836Z,11.86
2022-09-30T06:42:59.691Z,11.92
2022-09-30T06:45:32.999Z,11.98
2022-09-30T06:48:01.786Z,12.03
2022-09-30T06:50:30.291Z,12.11
2022-09-30T06:53:07.509Z,12.18
2022-09-30T06:55:39.227Z,12.23
2022-09-30T06:58:11.342Z,12.31
2022-09-30T07:00:38.368Z,12.40
2022-09-30T07:03:09.744Z,12.56
2022-09-30T07:05:44.420Z,12.68
2022-09-30T07:08:36.986Z,12.79
2022-09-30T07:11:12.653Z,12.90
2022-09-30T07:18:15.982Z,13.33
2022-09-30T07:21:51.291Z,13.51
2022-09-30T07:24:24.443Z,13.69
2022-09-30T07:27:47.283Z,13.90
2022-09-30T07:30:31.896Z,14.16
2022-09-30T07:33:04.077Z,14.53
2022-09-30T07:35:56.407Z,15.05
2022-09-30T07:38:52.791Z,15.39
2022-09-30T07:41:38.346Z,15.53
2022-09-30T07:44:12.620Z,15.48
2022-09-30T07:47:06.731Z,15.38
2022-09-30T07:49:34.933Z,15.29
2022-09-30T07:52:08.863Z,15.20
2022-09-30T07:54:41.016Z,15.13
2022-09-30T07:57:11.025Z,15.06
2022-09-30T07:59:41.359Z,15.02
2022-09-30T08:02:13.412Z,14.98
2022-09-30T08:04:52.397Z,14.96
2022-09-30T08:07:22.914Z,14.92
2022-09-30T08:09:50.182Z,14.92
2022-09-30T08:12:17.159Z,14.90
2022-09-30T08:14:45.059Z,14.90
2022-09-30T08:17:15.900Z,14.92
2022-09-30T08:19:45.411Z,14.94
2022-09-30T08:22:13.945Z,14.96
2022-09-30T08:24:45.241Z,15.00
2022-09-30T08:27:14.494Z,15.04
2022-09-30T08:32:32.176Z,15.16
2022-09-30T08:35:10.954Z,15.20
2022-09-30T08:37:37.928Z,15.26
2022-09-30T08:40:05.210Z,15.29
2022-09-30T08:42:40.578Z,15.33
2022-09-30T08:45:25.346Z,15.38
2022-09-30T08:48:34.633Z,15.42
2022-09-30T08:51:38.003Z,15.47
2022-09-30T08:54:16.442Z,15.50
2022-09-30T08:56:47.952Z,15.54
2022-09-30T08:59:33.610Z,15.58
2022-09-30T09:02:17.493Z,15.64
2022-09-30T09:04:45.579Z,15.67
2022-09-30T09:07:23.729Z,15.73
2022-09-30T09:10:12.787Z,15.79
2022-09-30T09:12:52.159Z,15.83
2022-09-30T09:15:43.125Z,15.87
2022-09-30T09:18:43.271Z,15.92
2022-09-30T09:21:35.347Z,15.95
2022-09-30T09:24:30.464Z,16.01
2022-09-30T09:27:23.379Z,16.07
2022-09-30T09:30:01.832Z,16.12
2022-09-30T09:32:29.861Z,16.17
2022-09-30T09:35:04.566Z,16.22
2022-09-30T09:38:13.921Z,16.25
2022-09-30T09:40:57.703Z,16.28
2022-09-30T09:43:48.415Z,16.32
2022-09-30T09:46:26.685Z,16.35
2022-09-30T09:49:42.175Z,16.38
2022-09-30T09:52:12.451Z,16.42
2022-09-30T09:54:47.319Z,16.44
2022-09-30T09:57:24.931Z,16.49
2022-09-30T10:02:30.111Z,16.55
2022-09-30T10:05:01.293Z,16.58
2022-09-30T10:07:30.225Z,16.62
2022-09-30T10:10:23.706Z,16.66
2022-09-30T10:12:53.973Z,16.70
2022-09-30T10:15:26.317Z,16.72
2022-09-30T10:18:06.856Z,16.75
2022-09-30T10:20:34.954Z,16.78
2022-09-30T10:23:08.207Z,16.79
2022-09-30T10:25:35.183Z,16.84
2022-09-30T10:28:04.313Z,16.86
2022-09-30T10:30:43.134Z,16.90
2022-09-30T10:33:16.838Z,16.91
2022-09-30T10:35:53.948Z,16.94
2022-09-30T10:38:22.171Z,16.97
2022-09-30T10:40:51.046Z,16.98
2022-09-30T10:43:20.957Z,17.02
2022-09-30T10:46:01.498Z,17.05
2022-09-30T10:48:36.365Z,17.09
2022-09-30T10:51:04.520Z,17.12
2022-09-30T10:53:34.480Z,17.15
2022-09-30T10:56:05.132Z,17.18
2022-09-30T10:58:46.624Z,17.21
2022-09-30T11:04:35.193Z,17.31
2022-09-30T11:07:27.870Z,17.36
2022-09-30T11:10:05.055Z,17.40
2022-09-30T11:13:37.930Z,17.44
2022-09-30T11:16:42.446Z,17.50
2022-09-30T11:19:24.274Z,17.56
2022-09-30T11:22:00.940Z,17.62
2022-09-30T11:24:44.293Z,17.67
2022-09-30T11:27:51.096Z,17.72
2022-09-30T11:30:21.966Z,17.74
2022-09-30T11:33:24.903Z,17.77
2022-09-30T11:35:56.887Z,17.80
2022-09-30T11:38:51.406Z,17.83
2022-09-30T11:41:23.688Z,17.87
2022-09-30T11:44:17.858Z,17.93
2022-09-30T11:47:06.263Z,17.96
2022-09-30T11:49:36.395Z,18.01
2022-09-30T11:52:30.621Z,18.03
2022-09-30T11:55:29.970Z,18.02
2022-09-30T11:58:39.774Z,18.01
2022-09-30T12:04:35.650Z,18.07
2022-09-30T12:07:11.638Z,18.10
2022-09-30T12:09:46.704Z,18.12
2022-09-30T12:12:17.978Z,18.15
2022-09-30T12:14:49.664Z,18.19
2022-09-30T12:17:39.662Z,18.24
2022-09-30T12:20:22.808Z,18.29
2022-09-30T12:22:55.048Z,18.31
2022-09-30T12:25:39.827Z,18.35
2022-09-30T12:28:34.557Z,18.40
2022-09-30T12:31:40.136Z,18.48
2022-09-30T12:34:29.441Z,18.54
2022-09-30T12:37:02.749Z,18.60
2022-09-30T12:39:59.183Z,18.67
2022-09-30T12:42:50.723Z,18.71
2022-09-30T12:45:55.036Z,18.68
2022-09-30T12:48:26.514Z,18.68
2022-09-30T12:50:57.556Z,18.71
2022-09-30T12:53:36.186Z,18.73
2022-09-30T12:56:14.603Z,18.75
2022-09-30T12:58:55.668Z,18.75
2022-09-30T13:01:42.458Z,18.76
2022-09-30T13:04:39.101Z,18.76
2022-09-30T13:07:22.506Z,18.79
2022-09-30T13:10:01.375Z,18.79
2022-09-30T13:12:44.780Z,18.81
2022-09-30T13:15:42.013Z,18.84
2022-09-30T13:18:20.538Z,18.88
2022-09-30T13:20:56.780Z,18.91
2022-09-30T13:23:42.827Z,18.95
2022-09-30T13:26:36.484Z,18.98
2022-09-30T13:29:06.383Z,19.01
2022-09-30T13:31:56.249Z,19.02
2022-09-30T13:34:30.925Z,19.06
2022-09-30T13:36:59.159Z,19.08
2022-09-30T13:39:30.592Z,19.10
2022-09-30T13:42:00.273Z,19.14
2022-09-30T13:44:38.634Z,19.18
2022-09-30T13:47:45.549Z,19.23
2022-09-30T13:50:31.603Z,19.23
2022-09-30T13:53:40.545Z,19.26
2022-09-30T13:56:09.557Z,19.27
2022-09-30T13:58:50.636Z,19.30
2022-09-30T14:01:32.412Z,19.31
2022-09-30T14:04:21.626Z,19.34
2022-09-30T14:07:29.303Z,19.36
2022-09-30T14:10:20.154Z,19.36
2022-09-30T14:12:56.702Z,19.36
2022-09-30T14:16:08.874Z,19.36
2022-09-30T14:18:44.547Z,19.33
2022-09-30T14:21:18.136Z,19.26
2022-09-30T14:23:45.140Z,19.20
2022-09-30T14:26:43.985Z,19.15
2022-09-30T14:29:19.912Z,19.12
2022-09-30T14:31:47.595Z,19.13
2022-09-30T14:34:17.041Z,19.17
2022-09-30T14:36:44.546Z,19.18
2022-09-30T14:39:18.101Z,19.19
2022-09-30T14:41:51.198Z,19.14
2022-09-30T14:44:20.065Z,19.09
2022-09-30T14:46:48.540Z,19.04
2022-09-30T14:49:28.776Z,19.01
2022-09-30T14:51:55.727Z,18.98
2022-09-30T14:54:24.622Z,18.96
2022-09-30T14:56:54.749Z,18.93
2022-09-30T14:59:31.263Z,18.92
2022-09-30T15:02:00.681Z,18.90
2022-09-30T15:04:35.146Z,18.90
2022-09-30T15:07:03.507Z,18.88
2022-09-30T15:09:36.193Z,18.86
2022-09-30T15:12:10.124Z,18.85
2022-09-30T15:14:55.311Z,18.84
2022-09-30T15:17:29.982Z,18.81
2022-09-30T15:19:58.362Z,18.79
2022-09-30T15:22:26.842Z,18.77
2022-09-30T15:24:54.391Z,18.76
2022-09-30T15:27:24.156Z,18.74
2022-09-30T15:30:29.299Z,18.71
2022-09-30T15:33:01.948Z,18.68
2022-09-30T15:35:28.867Z,18.64
2022-09-30T15:38:07.096Z,18.63
2022-09-30T15:40:50.453Z,18.61
2022-09-30T15:43:35.647Z,18.58
2022-09-30T15:46:27.653Z,18.56
2022-09-30T15:48:59.427Z,18.54
2022-09-30T15:51:43.470Z,18.52
2022-09-30T15:54:16.206Z,18.48
2022-09-30T15:56:43.541Z,18.46
2022-09-30T15:59:11.550Z,18.45
2022-09-30T16:01:43.840Z,18.41
2022-09-30T16:04:15.239Z,18.40
2022-09-30T16:06:45.011Z,18.36
2022-09-30T16:09:18.990Z,18.32
2022-09-30T16:12:09.960Z,18.28
2022-09-30T16:15:00.608Z,18.25
2022-09-30T16:17:35.619Z,18.20
2022-09-30T16:20:07.820Z,18.17
2022-09-30T16:22:53.541Z,18.13
2022-09-30T16:25:23.514Z,18.10
2022-09-30T16:27:57.617Z,18.06
2022-09-30T16:30:25.591Z,18.03
2022-09-30T16:32:58.112Z,17.99
2022-09-30T16:35:27.697Z,17.93
2022-09-30T16:38:00.214Z,17.89
2022-09-30T16:40:28.690Z,17.84
2022-09-30T16:42:55.589Z,17.79
2022-09-30T16:45:22.584Z,17.73
2022-09-30T16:47:50.492Z,17.69
2022-09-30T16:50:25.656Z,17.64
2022-09-30T16:52:52.621Z,17.58
2022-09-30T16:55:19.495Z,17.53
2022-09-30T16:57:46.342Z,17.48
2022-09-30T17:00:15.896Z,17.42
2022-09-30T17:02:42.721Z,17.36
2022-09-30T17:05:15.370Z,17.30
2022-09-30T17:07:43.852Z,17.24
2022-09-30T17:10:18.322Z,17.18
2022-09-30T17:12:45.138Z,17.13
2022-09-30T17:15:12.406Z,17.08
2022-09-30T17:17:39.314Z,16.99
2022-09-30T17:20:06.840Z,16.95
2022-09-30T17:22:33.743Z,16.89
2022-09-30T17:25:00.720Z,16.85
2022-09-30T17:27:27.695Z,16.79
2022-09-30T17:29:55.557Z,16.73
2022-09-30T17:32:22.645Z,16.69
2022-09-30T17:34:53.988Z,16.63
2022-09-30T17:37:27.169Z,16.58
2022-09-30T17:39:54.244Z,16.53
2022-09-30T17:42:39.979Z,16.47
2022-09-30T17:45:12.807Z,16.41
2022-09-30T17:47:42.398Z,16.36
2022-09-30T17:50:14.776Z,16.33
2022-09-30T17:52:44.087Z,16.28
2022-09-30T17:55:11.094Z,16.24
2022-09-30T17:57:39.939Z,16.20
2022-09-30T18:00:07.554Z,16.17
2022-09-30T18:02:34.448Z,16.12
2022-09-30T18:05:01.353Z,16.08
2022-09-30T18:07:28.157Z,16.05
2022-09-30T18:09:54.969Z,16.00
2022-09-30T18:12:21.741Z,15.98
2022-09-30T18:14:48.538Z,15.93
2022-09-30T18:17:15.325Z,15.90
2022-09-30T18:19:42.129Z,15.86
2022-09-30T18:22:08.898Z,15.82
2022-09-30T18:24:54.549Z,15.78
2022-09-30T18:27:22.677Z,15.74
2022-09-30T18:29:49.716Z,15.68
2022-09-30T18:32:17.586Z,15.63
2022-09-30T18:34:44.421Z,15.61
2022-09-30T18:37:11.211Z,15.58
2022-09-30T18:39:38.178Z,15.54
2022-09-30T18:42:05.450Z,15.53
2022-09-30T18:44:37.594Z,15.50
2022-09-30T18:47:05.055Z,15.47
2022-09-30T18:49:32.401Z,15.44
2022-09-30T18:51:59.728Z,15.41
2022-09-30T18:54:26.503Z,15.39
2022-09-30T18:56:53.436Z,15.36
2022-09-30T18:59:23.262Z,15.35
2022-09-30T19:01:51.018Z,15.32
2022-09-30T19:04:17.858Z,15.31
2022-09-30T19:06:45.207Z,15.28
2022-09-30T19:09:12.008Z,15.27
2022-09-30T19:11:43.093Z,15.22
2022-09-30T19:14:12.283Z,15.22
2022-09-30T19:16:39.343Z,15.19
2022-09-30T19:19:10.257Z,15.17
2022-09-30T19:21:38.240Z,15.15
2022-09-30T19:24:06.735Z,15.13
2022-09-30T19:26:36.192Z,15.10
2022-09-30T19:29:09.502Z,15.09
2022-09-30T19:31:37.505Z,15.07
2022-09-30T19:34:05.271Z,15.07
2022-09-30T19:36:42.003Z,15.06
2022-09-30T19:39:12.483Z,15.05
2022-09-30T19:41:39.865Z,15.04
2022-09-30T19:44:06.999Z,15.03
2022-09-30T19:46:33.784Z,15.03
2022-09-30T19:49:00.535Z,15.04
2022-09-30T19:51:30.762Z,15.04
2022-09-30T19:54:06.119Z,15.02
2022-09-30T19:56:34.820Z,15.01
2022-09-30T19:59:01.814Z,14.99
2022-09-30T20:01:29.536Z,14.98
2022-09-30T20:03:59.370Z,14.96
2022-09-30T20:06:28.013Z,14.95
2022-09-30T20:08:59.988Z,14.94
2022-09-30T20:11:28.771Z,14.91
2022-09-30T20:14:15.614Z,14.88
2022-09-30T20:16:43.852Z,14.86
2022-09-30T20:19:11.837Z,14.85
2022-09-30T20:21:38.745Z,14.84
2022-09-30T20:24:05.669Z,14.82
2022-09-30T20:26:34.232Z,14.79
2022-09-30T20:29:01.309Z,14.78
2022-09-30T20:31:28.364Z,14.77
2022-09-30T20:33:55.960Z,14.74
2022-09-30T20:36:23.586Z,14.73
2022-09-30T20:38:51.353Z,14.71
2022-09-30T20:41:18.323Z,14.70
2022-09-30T20:43:49.253Z,14.68
2022-09-30T20:46:16.075Z,14.65
2022-09-30T20:48:42.843Z,14.64
2022-09-30T20:51:11.962Z,14.62
2022-09-30T20:53:45.592Z,14.59
2022-09-30T20:56:15.569Z,14.59
2022-09-30T20:58:42.735Z,14.56
2022-09-30T21:01:12.580Z,14.54
2022-09-30T21:03:40.349Z,14.53
2022-09-30T21:06:11.072Z,14.52
2022-09-30T21:08:39.207Z,14.50
2022-09-30T21:11:07.359Z,14.49
2022-09-30T21:13:35.298Z,14.46
2022-09-30T21:16:03.995Z,14.46
2022-09-30T21:18:31.423Z,14.45
2022-09-30T21:20:59.793Z,14.43
2022-09-30T21:23:30.528Z,14.42
2022-09-30T21:25:58.810Z,14.42
2022-09-30T21:28:26.006Z,14.40
2022-09-30T21:30:53.114Z,14.39
2022-09-30T21:33:20.583Z,14.38
2022-09-30T21:35:47.432Z,14.39
2022-09-30T21:38:17.585Z,14.38
2022-09-30T21:40:50.136Z,14.35
2022-09-30T21:43:34.955Z,14.34
2022-09-30T21:46:03.926Z,14.34
2022-09-30T21:48:33.163Z,14.33
2022-09-30T21:51:00.359Z,14.32
2022-09-30T21:53:27.910Z,14.31
2022-09-30T21:55:55.744Z,14.30
2022-09-30T21:58:25.232Z,14.29
2022-09-30T22:00:53.417Z,14.28
2022-09-30T22:03:21.236Z,14.26
2022-09-30T22:05:54.618Z,14.25
2022-09-30T22:08:22.179Z,14.23
2022-09-30T22:10:50.770Z,14.22
2022-09-30T22:13:18.019Z,14.22
2022-09-30T22:15:46.061Z,14.20
2022-09-30T22:18:17.434Z,14.20
2022-09-30T22:20:45.092Z,14.20
2022-09-30T22:23:12.031Z,14.19
2022-09-30T22:25:39.036Z,14.19
2022-09-30T22:28:05.896Z,14.17
2022-09-30T22:30:33.159Z,14.17
2022-09-30T22:33:18.530Z,14.17
2022-09-30T22:36:03.772Z,14.14
2022-09-30T22:38:31.159Z,14.13
2022-09-30T22:40:59.280Z,14.13
2022-09-30T22:43:26.876Z,14.12
2022-09-30T22:46:08.289Z,14.13
2022-09-30T22:48:35.254Z,14.14
2022-09-30T22:51:01.997Z,14.12
2022-09-30T22:53:28.898Z,14.13
2022-09-30T22:55:55.879Z,14.12
2022-09-30T22:58:24.431Z,14.13
2022-09-30T23:00:55.115Z,14.13
2022-09-30T23:03:22.671Z,14.12
2022-09-30T23:05:50.105Z,14.13
2022-09-30T23:08:17.273Z,14.14
2022-09-30T23:10:50.686Z,14.14
2022-09-30T23:13:19.923Z,14.15
2022-09-30T23:15:47.809Z,14.15
2022-09-30T23:18:17.062Z,14.15
2022-09-30T23:20:59.970Z,14.15
2022-09-30T23:23:29.749Z,14.18
2022-09-30T23:26:00.195Z,14.18
2022-09-30T23:28:26.987Z,14.19
2022-09-30T23:30:53.864Z,14.19
2022-09-30T23:33:20.784Z,14.21
2022-09-30T23:35:48.184Z,14.22
2022-09-30T23:38:15.494Z,14.22
2022-09-30T23:40:44.701Z,14.22
2022-09-30T23:43:11.536Z,14.24
2022-09-30T23:45:38.301Z,14.25
2022-09-30T23:48:05.066Z,14.25
2022-09-30T23:50:32.362Z,14.25
2022-09-30T23:52:59.593Z,14.25
2022-09-30T23:55:27.696Z,14.24
2022-09-30T23:57:54.434Z,14.25
